Terminal Aerodrome Forecast
Issued by NWS Central Illinois

Home | Current Version | Previous Version | Text Only | Print | Product List | Glossary On
Versions: 1 2 3 4 5 6 7 8 9 10 11 12 13 14 15 16 17 18 19 20 21 22 23
648
FTUS43 KILX 142353
TAFPIA
TAF
KPIA 142353Z 1500/1524 VRB03KT P6SM SCT030 BKN200
     FM150200 VRB03KT P6SM BKN025
     FM151300 26006KT P6SM BKN035
     FM152100 26010KT P6SM BKN080
     FM152300 23007KT P6SM BKN090=

USA.gov is the U.S. government's official web portal to all federal, state and local government web resources and services.